createdAt,value
2023-02-17T00:02:04.282Z,-2.41
2023-02-17T00:04:35.728Z,-2.46
2023-02-17T00:07:07.188Z,-2.49
2023-02-17T00:09:45.303Z,-2.53
2023-02-17T00:12:13.634Z,-2.55
2023-02-17T00:14:44.916Z,-2.56
2023-02-17T00:17:15.619Z,-2.60
2023-02-17T00:19:49.645Z,-2.62
2023-02-17T00:22:18.147Z,-2.65
2023-02-17T00:24:52.029Z,-2.69
2023-02-17T00:27:26.331Z,-2.72
2023-02-17T00:29:54.868Z,-2.73
2023-02-17T00:32:23.716Z,-2.73
2023-02-17T00:34:53.361Z,-2.71
2023-02-17T00:37:27.556Z,-2.68
2023-02-17T00:40:00.120Z,-2.65
2023-02-17T00:42:28.835Z,-2.63
2023-02-17T00:45:00.796Z,-2.60
2023-02-17T00:47:40.599Z,-2.57
2023-02-17T00:50:14.583Z,-2.57
2023-02-17T00:52:43.347Z,-2.56
2023-02-17T00:55:17.460Z,-2.55
2023-02-17T00:57:52.264Z,-2.52
2023-02-17T01:00:25.966Z,-2.54
2023-02-17T01:02:57.401Z,-2.55
2023-02-17T01:05:32.859Z,-2.57
2023-02-17T01:08:01.816Z,-2.54
2023-02-17T01:10:35.768Z,-2.52
2023-02-17T01:13:11.660Z,-2.50
2023-02-17T01:15:42.472Z,-2.50
2023-02-17T01:18:18.920Z,-2.49
2023-02-17T01:20:52.539Z,-2.46
2023-02-17T01:23:21.189Z,-2.47
2023-02-17T01:25:50.815Z,-2.50
2023-02-17T01:28:26.503Z,-2.50
2023-02-17T01:30:57.488Z,-2.51
2023-02-17T01:33:31.050Z,-2.50
2023-02-17T01:36:07.679Z,-2.51
2023-02-17T01:38:47.433Z,-2.56
2023-02-17T01:41:26.886Z,-2.58
2023-02-17T01:44:23.834Z,-2.59
2023-02-17T01:47:08.699Z,-2.68
2023-02-17T01:49:46.117Z,-2.75
2023-02-17T01:52:25.559Z,-2.87
2023-02-17T01:55:01.518Z,-2.96
2023-02-17T01:57:42.211Z,-3.06
2023-02-17T02:00:20.849Z,-3.15
2023-02-17T02:02:55.158Z,-3.24
2023-02-17T02:05:29.486Z,-3.30
2023-02-17T02:08:01.672Z,-3.37
2023-02-17T02:10:37.352Z,-3.46
2023-02-17T02:13:13.642Z,-3.52
2023-02-17T02:16:03.642Z,-3.60
2023-02-17T02:18:45.305Z,-3.68
2023-02-17T02:22:08.093Z,-3.72
2023-02-17T02:25:30.081Z,-3.73
2023-02-17T02:29:01.996Z,-3.76
2023-02-17T02:32:01.456Z,-3.79
2023-02-17T02:35:05.544Z,-3.83
2023-02-17T02:37:53.256Z,-3.85
2023-02-17T02:40:47.337Z,-3.84
2023-02-17T02:43:30.791Z,-3.83
2023-02-17T02:46:05.001Z,-3.83
2023-02-17T02:48:50.646Z,-3.82
2023-02-17T02:52:18.063Z,-3.80
2023-02-17T02:55:42.169Z,-3.76
2023-02-17T02:58:50.766Z,-3.69
2023-02-17T03:02:13.117Z,-3.64
2023-02-17T03:05:09.193Z,-3.54
2023-02-17T03:08:07.392Z,-3.48
2023-02-17T03:10:59.825Z,-3.41
2023-02-17T03:13:40.982Z,-3.35
2023-02-17T03:16:28.433Z,-3.32
2023-02-17T03:19:05.049Z,-3.27
2023-02-17T03:21:42.762Z,-3.25
2023-02-17T03:24:21.165Z,-3.25
2023-02-17T03:26:59.406Z,-3.25
2023-02-17T03:29:31.323Z,-3.27
2023-02-17T03:32:08.316Z,-3.29
2023-02-17T03:34:47.099Z,-3.33
2023-02-17T03:37:15.817Z,-3.39
2023-02-17T03:39:53.068Z,-3.44
2023-02-17T03:42:28.000Z,-3.47
2023-02-17T03:44:57.106Z,-3.54
2023-02-17T03:47:30.284Z,-3.59
2023-02-17T03:50:09.290Z,-3.62
2023-02-17T03:52:46.209Z,-3.67
2023-02-17T03:55:18.005Z,-3.71
2023-02-17T03:57:55.712Z,-3.74
2023-02-17T04:00:24.718Z,-3.74
2023-02-17T04:02:59.479Z,-3.75
2023-02-17T04:05:28.462Z,-3.76
2023-02-17T04:07:59.331Z,-3.78
2023-02-17T04:10:30.023Z,-3.79
2023-02-17T04:13:01.115Z,-3.81
2023-02-17T04:15:36.128Z,-3.81
2023-02-17T04:18:09.706Z,-3.83
2023-02-17T04:20:38.619Z,-3.83
2023-02-17T04:23:14.536Z,-3.85
2023-02-17T04:25:55.399Z,-3.90
2023-02-17T04:28:29.629Z,-4.01
2023-02-17T04:31:02.250Z,-4.07
2023-02-17T04:33:31.117Z,-4.14
2023-02-17T04:35:59.791Z,-4.21
2023-02-17T04:38:32.913Z,-4.21
2023-02-17T04:41:07.324Z,-4.24
2023-02-17T04:43:40.710Z,-4.26
2023-02-17T04:46:12.045Z,-4.29
2023-02-17T04:48:42.827Z,-4.31
2023-02-17T04:51:14.335Z,-4.33
2023-02-17T04:53:46.145Z,-4.34
2023-02-17T04:56:22.916Z,-4.34
2023-02-17T04:58:51.641Z,-4.33
2023-02-17T05:01:23.412Z,-4.31
2023-02-17T05:03:52.033Z,-4.28
2023-02-17T05:06:20.675Z,-4.32
2023-02-17T05:08:53.770Z,-4.33
2023-02-17T05:11:25.443Z,-4.29
2023-02-17T05:13:58.811Z,-4.24
2023-02-17T05:16:29.679Z,-4.18
2023-02-17T05:19:01.670Z,-4.12
2023-02-17T05:21:32.839Z,-4.05
2023-02-17T05:24:05.960Z,-4.00
2023-02-17T05:26:34.939Z,-3.96
2023-02-17T05:29:05.624Z,-3.93
2023-02-17T05:31:39.844Z,-3.90
2023-02-17T05:34:15.558Z,-3.88
2023-02-17T05:36:49.465Z,-3.85
2023-02-17T05:39:20.511Z,-3.77
2023-02-17T05:41:49.068Z,-3.71
2023-02-17T05:44:23.478Z,-3.68
2023-02-17T05:47:00.287Z,-3.63
2023-02-17T05:49:36.627Z,-3.63
2023-02-17T05:52:12.801Z,-3.62
2023-02-17T05:54:55.587Z,-3.59
2023-02-17T05:57:35.330Z,-3.58
2023-02-17T06:00:14.472Z,-3.63
2023-02-17T06:02:48.431Z,-3.67
2023-02-17T06:05:20.429Z,-3.70
2023-02-17T06:07:54.324Z,-3.78
2023-02-17T06:10:28.583Z,-3.88
2023-02-17T06:13:05.145Z,-3.92
2023-02-17T06:15:38.759Z,-3.93
2023-02-17T06:18:17.984Z,-3.90
2023-02-17T06:20:57.484Z,-3.86
2023-02-17T06:23:36.963Z,-3.86
2023-02-17T06:26:15.908Z,-3.80
2023-02-17T06:28:47.576Z,-3.74
2023-02-17T06:31:22.440Z,-3.67
2023-02-17T06:33:56.161Z,-3.61
2023-02-17T06:36:40.932Z,-3.52
2023-02-17T06:39:32.219Z,-3.45
2023-02-17T06:42:20.185Z,-3.33
2023-02-17T06:45:05.802Z,-3.23
2023-02-17T06:47:46.883Z,-3.12
2023-02-17T06:50:29.212Z,-3.01
2023-02-17T06:53:10.648Z,-2.89
2023-02-17T06:55:49.575Z,-2.75
2023-02-17T06:58:36.692Z,-2.62
2023-02-17T07:01:29.261Z,-2.51
2023-02-17T07:04:14.801Z,-2.36
2023-02-17T07:06:54.409Z,-2.17
2023-02-17T07:09:33.447Z,-1.98
2023-02-17T07:12:14.384Z,-1.71
2023-02-17T07:15:01.512Z,-1.53
2023-02-17T07:17:54.436Z,-1.33
2023-02-17T07:20:39.969Z,-1.11
2023-02-17T07:23:19.901Z,-0.85
2023-02-17T07:26:08.625Z,-0.59
2023-02-17T07:28:44.542Z,-0.32
2023-02-17T07:31:26.401Z,-0.10
2023-02-17T07:34:08.239Z,0.14
2023-02-17T07:36:40.037Z,0.43
2023-02-17T07:39:11.262Z,0.69
2023-02-17T07:41:42.231Z,0.94
2023-02-17T07:44:13.745Z,1.18
2023-02-17T07:46:47.164Z,1.36
2023-02-17T07:49:22.970Z,1.52
2023-02-17T07:51:53.874Z,1.69
2023-02-17T07:54:24.765Z,1.81
2023-02-17T07:56:57.972Z,1.93
2023-02-17T07:59:29.682Z,2.05
2023-02-17T08:02:00.995Z,2.16
2023-02-17T08:04:34.928Z,2.27
2023-02-17T08:07:03.619Z,2.35
2023-02-17T08:10:13.746Z,2.42
2023-02-17T08:13:04.869Z,2.52
2023-02-17T08:15:46.120Z,2.64
2023-02-17T08:18:17.471Z,2.76
2023-02-17T08:20:50.488Z,2.82
2023-02-17T08:23:22.446Z,2.95
2023-02-17T08:25:50.789Z,3.06
2023-02-17T08:28:21.758Z,3.13
2023-02-17T08:30:50.946Z,3.25
2023-02-17T08:33:22.335Z,3.35
2023-02-17T08:35:53.272Z,3.49
2023-02-17T08:38:27.129Z,3.57
2023-02-17T08:40:58.895Z,3.66
2023-02-17T08:43:30.224Z,3.79
2023-02-17T08:45:58.812Z,3.91
2023-02-17T08:48:30.324Z,4.01
2023-02-17T08:51:04.429Z,4.14
2023-02-17T08:53:34.310Z,4.26
2023-02-17T08:56:06.460Z,4.38
2023-02-17T08:58:36.140Z,4.53
2023-02-17T09:01:10.468Z,4.68
2023-02-17T09:03:41.967Z,4.90
2023-02-17T09:06:10.799Z,5.09
2023-02-17T09:08:42.815Z,5.23
2023-02-17T09:11:19.887Z,5.42
2023-02-17T09:13:51.291Z,5.57
2023-02-17T09:16:25.133Z,5.67
2023-02-17T09:18:53.854Z,5.77
2023-02-17T09:21:28.196Z,5.85
2023-02-17T09:23:58.952Z,5.97
2023-02-17T09:26:30.253Z,6.09
2023-02-17T09:29:01.421Z,6.13
2023-02-17T09:31:32.518Z,6.19
2023-02-17T09:34:04.379Z,6.35
2023-02-17T09:36:38.846Z,6.54
2023-02-17T09:39:14.287Z,6.69
2023-02-17T09:41:53.468Z,6.93
2023-02-17T09:44:26.862Z,7.16
2023-02-17T09:47:14.487Z,7.41
2023-02-17T09:49:53.840Z,7.61
2023-02-17T09:52:36.230Z,7.84
2023-02-17T09:55:18.879Z,8.00
2023-02-17T09:57:57.268Z,8.08
2023-02-17T10:00:40.888Z,8.19
2023-02-17T10:03:36.465Z,8.24
2023-02-17T10:06:18.842Z,8.29
2023-02-17T10:09:24.477Z,8.34
2023-02-17T10:12:01.852Z,8.36
2023-02-17T10:14:41.282Z,8.31
2023-02-17T10:17:49.357Z,8.33
2023-02-17T10:20:33.420Z,8.31
2023-02-17T10:23:27.016Z,8.35
2023-02-17T10:26:45.642Z,8.40
2023-02-17T10:30:19.213Z,8.43
2023-02-17T10:33:23.871Z,8.45
2023-02-17T10:36:29.832Z,8.45
2023-02-17T10:39:33.277Z,8.54
2023-02-17T10:42:29.754Z,8.58
2023-02-17T10:45:25.615Z,8.65
2023-02-17T10:48:58.413Z,8.73
2023-02-17T10:51:31.499Z,8.78
2023-02-17T10:54:29.982Z,8.81
2023-02-17T10:57:11.238Z,8.88
2023-02-17T10:59:48.055Z,8.97
2023-02-17T11:02:39.980Z,9.07
2023-02-17T11:05:27.122Z,9.20
2023-02-17T11:08:03.423Z,9.36
2023-02-17T11:10:41.479Z,9.37
2023-02-17T11:13:38.355Z,9.47
2023-02-17T11:16:07.747Z,9.54
2023-02-17T11:18:45.044Z,9.62
2023-02-17T11:21:13.817Z,9.71
2023-02-17T11:23:58.823Z,9.74
2023-02-17T11:26:30.881Z,9.83
2023-02-17T11:29:22.464Z,9.82
2023-02-17T11:32:07.457Z,9.81
2023-02-17T11:34:38.994Z,9.83
2023-02-17T11:37:13.268Z,9.81
2023-02-17T11:39:56.156Z,9.82
2023-02-17T11:42:29.183Z,9.85
2023-02-17T11:45:00.542Z,9.79
2023-02-17T11:47:36.771Z,9.80
2023-02-17T11:50:12.958Z,9.83
2023-02-17T11:52:52.972Z,9.82
2023-02-17T11:55:42.944Z,9.86
2023-02-17T11:58:31.128Z,9.85
2023-02-17T12:01:28.374Z,9.81
2023-02-17T12:04:22.201Z,9.81
2023-02-17T12:07:30.901Z,9.80
2023-02-17T12:10:27.376Z,9.81
2023-02-17T12:13:22.956Z,9.81
2023-02-17T12:16:36.250Z,9.84
2023-02-17T12:19:37.220Z,9.81
2023-02-17T12:22:28.995Z,9.85
2023-02-17T12:25:20.968Z,9.84
2023-02-17T12:28:04.130Z,9.82
2023-02-17T12:31:17.482Z,9.84
2023-02-17T12:34:20.100Z,9.85
2023-02-17T12:36:51.673Z,9.81
2023-02-17T12:39:27.477Z,9.77
2023-02-17T12:42:02.240Z,9.75
2023-02-17T12:44:42.641Z,9.77
2023-02-17T12:47:26.867Z,9.74
2023-02-17T12:50:03.258Z,9.71
2023-02-17T12:52:39.382Z,9.69
2023-02-17T12:55:22.199Z,9.72
2023-02-17T12:58:06.448Z,9.74
2023-02-17T13:00:46.639Z,9.72
2023-02-17T13:03:15.285Z,9.76
2023-02-17T13:05:59.771Z,9.77
2023-02-17T13:08:39.176Z,9.80
2023-02-17T13:11:28.624Z,9.79
2023-02-17T13:13:57.674Z,9.83
2023-02-17T13:16:28.588Z,9.87
2023-02-17T13:19:08.302Z,9.86
2023-02-17T13:21:36.797Z,9.89
2023-02-17T13:24:35.091Z,9.90
2023-02-17T13:27:20.798Z,9.96
2023-02-17T13:30:10.129Z,10.02
2023-02-17T13:32:39.404Z,10.05
2023-02-17T13:35:31.954Z,10.13
2023-02-17T13:38:00.823Z,10.17
2023-02-17T13:40:29.575Z,10.23
2023-02-17T13:43:07.917Z,10.25
2023-02-17T13:46:08.141Z,10.29
2023-02-17T13:48:48.943Z,10.33
2023-02-17T13:51:32.559Z,10.37
2023-02-17T13:54:15.180Z,10.30
2023-02-17T13:56:51.477Z,10.32
2023-02-17T13:59:32.540Z,10.31
2023-02-17T14:02:01.067Z,10.29
2023-02-17T14:04:31.802Z,10.30
2023-02-17T14:07:07.625Z,10.25
2023-02-17T14:09:35.928Z,10.40
2023-02-17T14:12:12.610Z,10.56
2023-02-17T14:14:43.421Z,10.70
2023-02-17T14:17:34.236Z,10.81
2023-02-17T14:20:02.514Z,10.76
2023-02-17T14:22:33.783Z,10.68
2023-02-17T14:25:17.120Z,10.64
2023-02-17T14:27:51.307Z,10.59
2023-02-17T14:30:34.314Z,10.44
2023-02-17T14:33:16.226Z,10.37
2023-02-17T14:35:52.077Z,10.33
2023-02-17T14:38:28.886Z,10.30
2023-02-17T14:41:01.313Z,10.24
2023-02-17T14:43:35.523Z,10.19
2023-02-17T14:46:06.496Z,10.16
2023-02-17T14:48:46.021Z,10.12
2023-02-17T14:51:23.480Z,10.09
2023-02-17T14:54:10.958Z,10.06
2023-02-17T14:56:51.937Z,10.01
2023-02-17T14:59:30.006Z,9.94
2023-02-17T15:02:06.631Z,9.84
2023-02-17T15:04:45.423Z,9.75
2023-02-17T15:07:19.434Z,9.70
2023-02-17T15:09:57.889Z,9.61
2023-02-17T15:12:35.288Z,9.58
2023-02-17T15:15:04.377Z,9.55
2023-02-17T15:17:33.143Z,9.46
2023-02-17T15:20:04.370Z,9.39
2023-02-17T15:22:33.547Z,9.34
2023-02-17T15:25:14.833Z,9.27
2023-02-17T15:27:45.562Z,9.18
2023-02-17T15:30:19.888Z,9.15
2023-02-17T15:32:53.826Z,9.08
2023-02-17T15:35:34.266Z,9.05
2023-02-17T15:38:08.445Z,8.95
2023-02-17T15:40:36.945Z,8.93
2023-02-17T15:43:06.002Z,8.91
2023-02-17T15:45:39.910Z,8.87
2023-02-17T15:48:26.310Z,8.84
2023-02-17T15:50:58.172Z,8.83
2023-02-17T15:53:29.121Z,8.78
2023-02-17T15:55:57.289Z,8.72
2023-02-17T15:58:25.532Z,8.64
2023-02-17T16:00:55.921Z,8.58
2023-02-17T16:03:26.496Z,8.55
2023-02-17T16:05:54.645Z,8.46
2023-02-17T16:08:23.033Z,8.41
2023-02-17T16:10:52.106Z,8.34
2023-02-17T16:13:20.960Z,8.28
2023-02-17T16:15:49.496Z,8.24
2023-02-17T16:18:23.464Z,8.18
2023-02-17T16:20:52.425Z,8.13
2023-02-17T16:23:20.818Z,8.09
2023-02-17T16:25:50.785Z,8.04
2023-02-17T16:28:21.806Z,8.00
2023-02-17T16:30:50.083Z,7.94
2023-02-17T16:33:18.940Z,7.91
2023-02-17T16:35:50.008Z,7.89
2023-02-17T16:38:23.053Z,7.84
2023-02-17T16:40:53.250Z,7.81
2023-02-17T16:43:24.318Z,7.78
2023-02-17T16:45:56.925Z,7.73
2023-02-17T16:48:30.680Z,7.71
2023-02-17T16:50:59.017Z,7.70
2023-02-17T16:53:28.005Z,7.68
2023-02-17T16:55:56.963Z,7.66
2023-02-17T16:58:27.070Z,7.61
2023-02-17T17:00:56.219Z,7.58
2023-02-17T17:03:27.194Z,7.54
2023-02-17T17:05:58.441Z,7.48
2023-02-17T17:08:26.753Z,7.44
2023-02-17T17:10:58.068Z,7.36
2023-02-17T17:13:26.467Z,7.29
2023-02-17T17:15:57.131Z,7.22
2023-02-17T17:18:27.579Z,7.14
2023-02-17T17:20:56.072Z,7.07
2023-02-17T17:23:26.803Z,6.99
2023-02-17T17:26:00.751Z,6.94
2023-02-17T17:28:28.730Z,6.89
2023-02-17T17:30:57.077Z,6.83
2023-02-17T17:33:25.393Z,6.76
2023-02-17T17:35:56.696Z,6.70
2023-02-17T17:38:25.369Z,6.59
2023-02-17T17:40:57.012Z,6.53
2023-02-17T17:43:28.031Z,6.47
2023-02-17T17:45:56.430Z,6.44
2023-02-17T17:48:29.919Z,6.41
2023-02-17T17:51:04.112Z,6.39
2023-02-17T17:53:32.529Z,6.39
2023-02-17T17:56:03.887Z,6.38
2023-02-17T17:58:38.927Z,6.39
2023-02-17T18:01:07.407Z,6.41
2023-02-17T18:03:35.684Z,6.44
2023-02-17T18:06:08.795Z,6.45
2023-02-17T18:08:44.451Z,6.47
2023-02-17T18:11:16.664Z,6.47
2023-02-17T18:13:47.989Z,6.46
2023-02-17T18:16:17.190Z,6.46
2023-02-17T18:18:51.709Z,6.47
2023-02-17T18:21:22.832Z,6.48
2023-02-17T18:23:56.712Z,6.47
2023-02-17T18:26:25.183Z,6.47
2023-02-17T18:29:00.517Z,6.48
2023-02-17T18:31:32.261Z,6.48
2023-02-17T18:34:11.599Z,6.49
2023-02-17T18:36:42.634Z,6.51
2023-02-17T18:39:21.301Z,6.53
2023-02-17T18:41:51.781Z,6.55
2023-02-17T18:44:22.384Z,6.57
2023-02-17T18:47:00.006Z,6.59
2023-02-17T18:49:33.922Z,6.59
2023-02-17T18:52:11.194Z,6.58
2023-02-17T18:54:48.933Z,6.60
2023-02-17T18:57:50.976Z,6.60
2023-02-17T19:00:34.063Z,6.59
2023-02-17T19:03:13.114Z,6.61
2023-02-17T19:05:50.685Z,6.61
2023-02-17T19:08:31.072Z,6.63
2023-02-17T19:11:27.812Z,6.68
2023-02-17T19:14:02.047Z,6.69
2023-02-17T19:16:33.450Z,6.71
2023-02-17T19:19:04.840Z,6.72
2023-02-17T19:21:36.496Z,6.73
2023-02-17T19:24:09.552Z,6.74
2023-02-17T19:26:40.677Z,6.76
2023-02-17T19:29:11.526Z,6.74
2023-02-17T19:31:40.015Z,6.70
2023-02-17T19:34:08.199Z,6.68
2023-02-17T19:36:36.358Z,6.67
2023-02-17T19:39:04.987Z,6.64
2023-02-17T19:41:35.702Z,6.62
2023-02-17T19:44:04.500Z,6.61
2023-02-17T19:46:33.704Z,6.59
2023-02-17T19:49:05.109Z,6.60
2023-02-17T19:51:35.850Z,6.61
2023-02-17T19:54:04.275Z,6.61
2023-02-17T19:56:37.016Z,6.63
2023-02-17T19:59:10.864Z,6.65
2023-02-17T20:01:41.075Z,6.68
2023-02-17T20:04:12.600Z,6.71
2023-02-17T20:06:44.520Z,6.73
2023-02-17T20:09:18.810Z,6.76
2023-02-17T20:11:48.900Z,6.81
2023-02-17T20:14:18.285Z,6.85
2023-02-17T20:16:48.620Z,6.88
2023-02-17T20:19:16.928Z,6.89
2023-02-17T20:21:45.943Z,6.93
2023-02-17T20:24:17.591Z,6.93
2023-02-17T20:26:51.026Z,6.95
2023-02-17T20:29:19.797Z,6.94
2023-02-17T20:31:48.321Z,6.92
2023-02-17T20:34:32.627Z,6.88
2023-02-17T20:37:01.620Z,6.83
2023-02-17T20:39:36.269Z,6.76
2023-02-17T20:42:06.981Z,6.67
2023-02-17T20:44:35.874Z,6.63
2023-02-17T20:47:04.281Z,6.58
2023-02-17T20:49:34.674Z,6.54
2023-02-17T20:52:03.071Z,6.48
2023-02-17T20:54:31.873Z,6.43
2023-02-17T20:57:01.153Z,6.36
2023-02-17T20:59:29.939Z,6.29
2023-02-17T21:01:58.457Z,6.25
2023-02-17T21:04:26.634Z,6.23
2023-02-17T21:06:59.402Z,6.17
2023-02-17T21:09:29.618Z,6.16
2023-02-17T21:12:03.105Z,6.13
2023-02-17T21:14:34.257Z,6.12
2023-02-17T21:17:02.562Z,6.14
2023-02-17T21:19:35.765Z,6.15
2023-02-17T21:22:09.888Z,6.20
2023-02-17T21:24:38.396Z,6.23
2023-02-17T21:27:06.748Z,6.27
2023-02-17T21:29:37.223Z,6.31
2023-02-17T21:32:05.800Z,6.34
2023-02-17T21:34:38.917Z,6.36
2023-02-17T21:37:10.724Z,6.38
2023-02-17T21:39:43.651Z,6.40
2023-02-17T21:42:12.046Z,6.43
2023-02-17T21:44:53.168Z,6.48
2023-02-17T21:47:24.703Z,6.50
2023-02-17T21:50:00.961Z,6.49
2023-02-17T21:52:29.385Z,6.50
2023-02-17T21:55:01.067Z,6.54
2023-02-17T21:57:29.323Z,6.61
2023-02-17T21:59:59.880Z,6.66
2023-02-17T22:02:28.249Z,6.70
2023-02-17T22:04:59.823Z,6.71
2023-02-17T22:07:31.652Z,6.72
2023-02-17T22:10:00.557Z,6.73
2023-02-17T22:12:31.486Z,6.72
2023-02-17T22:14:59.989Z,6.72
2023-02-17T22:17:28.226Z,6.73
2023-02-17T22:19:57.229Z,6.72
2023-02-17T22:22:34.407Z,6.71
2023-02-17T22:25:05.720Z,6.69
2023-02-17T22:27:36.934Z,6.67
2023-02-17T22:30:11.882Z,6.67
2023-02-17T22:32:43.283Z,6.65
2023-02-17T22:35:20.055Z,6.67
2023-02-17T22:37:59.774Z,6.66
2023-02-17T22:40:35.626Z,6.65
2023-02-17T22:43:06.945Z,6.64
2023-02-17T22:45:40.451Z,6.63
2023-02-17T22:48:13.625Z,6.63
2023-02-17T22:50:49.686Z,6.62
2023-02-17T22:53:20.673Z,6.62
2023-02-17T22:56:20.456Z,6.62
2023-02-17T22:59:23.820Z,6.68
2023-02-17T23:01:52.318Z,6.76
2023-02-17T23:04:20.969Z,6.84
2023-02-17T23:06:49.086Z,6.93
2023-02-17T23:09:19.089Z,7.01
2023-02-17T23:11:54.579Z,7.07
2023-02-17T23:14:36.945Z,7.11
2023-02-17T23:17:11.032Z,7.13
2023-02-17T23:19:40.728Z,7.13
2023-02-17T23:22:15.955Z,7.13
2023-02-17T23:24:45.334Z,7.13
2023-02-17T23:27:14.694Z,7.17
2023-02-17T23:29:43.038Z,7.24
2023-02-17T23:32:11.378Z,7.33
2023-02-17T23:34:40.463Z,7.44
2023-02-17T23:37:08.964Z,7.54
2023-02-17T23:39:40.525Z,7.63
2023-02-17T23:42:09.249Z,7.67
2023-02-17T23:44:37.575Z,7.65
2023-02-17T23:47:08.228Z,7.61
2023-02-17T23:49:36.641Z,7.53
2023-02-17T23:52:05.436Z,7.43
2023-02-17T23:54:33.865Z,7.32
2023-02-17T23:57:02.073Z,7.21
2023-02-17T23:59:30.341Z,7.15
